sensor_id;sensor_type;location;lat;lon;timestamp;P1;durP1;ratioP1;P2;durP2;ratioP2
36355;SDS011;22384;54.302;18.596;2023-10-08T00:01:35;2.15;;;1.25;;
36355;SDS011;22384;54.302;18.596;2023-10-08T00:04:07;3.25;;;1.38;;
36355;SDS011;22384;54.302;18.596;2023-10-08T00:06:33;3.55;;;1.55;;
36355;SDS011;22384;54.302;18.596;2023-10-08T00:09:00;5.47;;;1.10;;
36355;SDS011;22384;54.302;18.596;2023-10-08T00:11:31;2.50;;;1.05;;
36355;SDS011;22384;54.302;18.596;2023-10-08T00:13:57;1.42;;;0.80;;
36355;SDS011;22384;54.302;18.596;2023-10-08T00:16:26;3.78;;;1.00;;
36355;SDS011;22384;54.302;18.596;2023-10-08T00:18:53;2.63;;;0.88;;
36355;SDS011;22384;54.302;18.596;2023-10-08T00:21:24;0.77;;;0.60;;
36355;SDS011;22384;54.302;18.596;2023-10-08T00:23:53;4.68;;;0.88;;
36355;SDS011;22384;54.302;18.596;2023-10-08T00:26:25;4.00;;;0.85;;
36355;SDS011;22384;54.302;18.596;2023-10-08T00:28:53;2.95;;;0.95;;
36355;SDS011;22384;54.302;18.596;2023-10-08T00:31:20;1.58;;;0.70;;
36355;SDS011;22384;54.302;18.596;2023-10-08T00:33:50;2.53;;;0.75;;
36355;SDS011;22384;54.302;18.596;2023-10-08T00:36:16;2.10;;;0.73;;
36355;SDS011;22384;54.302;18.596;2023-10-08T00:38:44;2.08;;;0.80;;
36355;SDS011;22384;54.302;18.596;2023-10-08T00:41:13;0.47;;;0.35;;
36355;SDS011;22384;54.302;18.596;2023-10-08T00:43:40;1.92;;;0.73;;
36355;SDS011;22384;54.302;18.596;2023-10-08T00:46:07;0.93;;;0.35;;
36355;SDS011;22384;54.302;18.596;2023-10-08T00:48:52;4.32;;;1.42;;
36355;SDS011;22384;54.302;18.596;2023-10-08T00:51:20;4.40;;;0.70;;
36355;SDS011;22384;54.302;18.596;2023-10-08T00:53:47;3.25;;;0.70;;
36355;SDS011;22384;54.302;18.596;2023-10-08T00:56:18;0.80;;;0.75;;
36355;SDS011;22384;54.302;18.596;2023-10-08T00:58:45;1.13;;;0.50;;
36355;SDS011;22384;54.302;18.596;2023-10-08T01:01:14;4.47;;;0.68;;
36355;SDS011;22384;54.302;18.596;2023-10-08T01:03:41;3.35;;;0.80;;
36355;SDS011;22384;54.302;18.596;2023-10-08T01:06:12;4.07;;;0.60;;
36355;SDS011;22384;54.302;18.596;2023-10-08T01:08:43;4.00;;;0.70;;
36355;SDS011;22384;54.302;18.596;2023-10-08T01:11:20;1.38;;;0.65;;
36355;SDS011;22384;54.302;18.596;2023-10-08T01:13:56;3.88;;;0.73;;
36355;SDS011;22384;54.302;18.596;2023-10-08T01:16:24;1.23;;;0.60;;
36355;SDS011;22384;54.302;18.596;2023-10-08T01:18:52;2.63;;;0.45;;
36355;SDS011;22384;54.302;18.596;2023-10-08T01:21:19;1.85;;;0.55;;
36355;SDS011;22384;54.302;18.596;2023-10-08T01:23:59;2.10;;;0.50;;
36355;SDS011;22384;54.302;18.596;2023-10-08T01:26:27;0.80;;;0.50;;
36355;SDS011;22384;54.302;18.596;2023-10-08T01:28:56;1.00;;;0.43;;
36355;SDS011;22384;54.302;18.596;2023-10-08T01:33:53;2.03;;;0.95;;
36355;SDS011;22384;54.302;18.596;2023-10-08T01:36:22;1.23;;;0.70;;
36355;SDS011;22384;54.302;18.596;2023-10-08T01:38:48;1.15;;;0.50;;
36355;SDS011;22384;54.302;18.596;2023-10-08T01:41:14;0.32;;;0.32;;
36355;SDS011;22384;54.302;18.596;2023-10-08T01:43:47;2.55;;;0.47;;
36355;SDS011;22384;54.302;18.596;2023-10-08T01:46:15;1.58;;;0.90;;
36355;SDS011;22384;54.302;18.596;2023-10-08T01:48:41;1.92;;;0.60;;
36355;SDS011;22384;54.302;18.596;2023-10-08T01:51:10;0.82;;;0.63;;
36355;SDS011;22384;54.302;18.596;2023-10-08T01:53:49;1.83;;;0.80;;
36355;SDS011;22384;54.302;18.596;2023-10-08T01:56:16;1.00;;;0.50;;
36355;SDS011;22384;54.302;18.596;2023-10-08T01:58:43;1.33;;;0.45;;
36355;SDS011;22384;54.302;18.596;2023-10-08T02:01:09;2.33;;;0.50;;
36355;SDS011;22384;54.302;18.596;2023-10-08T02:03:37;1.55;;;0.50;;
36355;SDS011;22384;54.302;18.596;2023-10-08T02:06:03;3.38;;;0.50;;
36355;SDS011;22384;54.302;18.596;2023-10-08T02:08:31;2.72;;;0.70;;
36355;SDS011;22384;54.302;18.596;2023-10-08T02:10:57;1.13;;;0.55;;
36355;SDS011;22384;54.302;18.596;2023-10-08T02:13:24;1.85;;;0.60;;
36355;SDS011;22384;54.302;18.596;2023-10-08T02:15:51;0.98;;;0.40;;
36355;SDS011;22384;54.302;18.596;2023-10-08T02:18:18;1.48;;;0.40;;
36355;SDS011;22384;54.302;18.596;2023-10-08T02:20:44;2.22;;;0.90;;
36355;SDS011;22384;54.302;18.596;2023-10-08T02:23:10;2.03;;;0.85;;
36355;SDS011;22384;54.302;18.596;2023-10-08T02:25:37;1.48;;;0.60;;
36355;SDS011;22384;54.302;18.596;2023-10-08T02:28:05;2.03;;;0.52;;
36355;SDS011;22384;54.302;18.596;2023-10-08T02:30:33;2.55;;;0.80;;
36355;SDS011;22384;54.302;18.596;2023-10-08T02:32:59;0.85;;;0.57;;
36355;SDS011;22384;54.302;18.596;2023-10-08T02:35:25;1.98;;;0.50;;
36355;SDS011;22384;54.302;18.596;2023-10-08T02:37:52;2.00;;;0.50;;
36355;SDS011;22384;54.302;18.596;2023-10-08T02:40:19;3.83;;;0.70;;
36355;SDS011;22384;54.302;18.596;2023-10-08T02:42:52;1.70;;;0.50;;
36355;SDS011;22384;54.302;18.596;2023-10-08T02:45:27;3.05;;;0.70;;
36355;SDS011;22384;54.302;18.596;2023-10-08T02:47:54;2.50;;;0.93;;
36355;SDS011;22384;54.302;18.596;2023-10-08T02:50:21;2.35;;;0.70;;
36355;SDS011;22384;54.302;18.596;2023-10-08T02:52:49;1.13;;;0.75;;
36355;SDS011;22384;54.302;18.596;2023-10-08T02:55:16;3.50;;;0.65;;
36355;SDS011;22384;54.302;18.596;2023-10-08T02:58:02;4.90;;;0.85;;
36355;SDS011;22384;54.302;18.596;2023-10-08T03:00:28;2.00;;;0.50;;
36355;SDS011;22384;54.302;18.596;2023-10-08T03:02:56;1.83;;;0.50;;
36355;SDS011;22384;54.302;18.596;2023-10-08T03:05:22;1.02;;;0.57;;
36355;SDS011;22384;54.302;18.596;2023-10-08T03:07:54;3.83;;;0.60;;
36355;SDS011;22384;54.302;18.596;2023-10-08T03:10:20;1.10;;;0.40;;
36355;SDS011;22384;54.302;18.596;2023-10-08T03:12:47;1.02;;;0.60;;
36355;SDS011;22384;54.302;18.596;2023-10-08T03:15:15;2.53;;;0.52;;
36355;SDS011;22384;54.302;18.596;2023-10-08T03:18:03;0.57;;;0.40;;
36355;SDS011;22384;54.302;18.596;2023-10-08T03:20:39;1.65;;;0.70;;
36355;SDS011;22384;54.302;18.596;2023-10-08T03:23:14;2.33;;;0.50;;
36355;SDS011;22384;54.302;18.596;2023-10-08T03:26:00;0.98;;;0.50;;
36355;SDS011;22384;54.302;18.596;2023-10-08T03:28:34;1.30;;;0.50;;
36355;SDS011;22384;54.302;18.596;2023-10-08T03:31:00;1.33;;;0.50;;
36355;SDS011;22384;54.302;18.596;2023-10-08T03:33:30;2.25;;;0.70;;
36355;SDS011;22384;54.302;18.596;2023-10-08T03:35:59;2.58;;;1.10;;
36355;SDS011;22384;54.302;18.596;2023-10-08T03:38:29;2.38;;;0.55;;
36355;SDS011;22384;54.302;18.596;2023-10-08T03:41:10;0.75;;;0.47;;
36355;SDS011;22384;54.302;18.596;2023-10-08T03:43:44;2.15;;;0.40;;
36355;SDS011;22384;54.302;18.596;2023-10-08T03:46:33;4.38;;;0.57;;
36355;SDS011;22384;54.302;18.596;2023-10-08T03:49:11;4.65;;;0.70;;
36355;SDS011;22384;54.302;18.596;2023-10-08T03:51:50;3.90;;;0.80;;
36355;SDS011;22384;54.302;18.596;2023-10-08T03:54:17;0.88;;;0.55;;
36355;SDS011;22384;54.302;18.596;2023-10-08T03:56:44;4.13;;;0.68;;
36355;SDS011;22384;54.302;18.596;2023-10-08T03:59:20;0.88;;;0.35;;
36355;SDS011;22384;54.302;18.596;2023-10-08T04:01:59;2.45;;;0.80;;
36355;SDS011;22384;54.302;18.596;2023-10-08T04:04:38;1.35;;;0.50;;
36355;SDS011;22384;54.302;18.596;2023-10-08T04:07:19;3.53;;;0.60;;
36355;SDS011;22384;54.302;18.596;2023-10-08T04:09:58;4.35;;;0.82;;
36355;SDS011;22384;54.302;18.596;2023-10-08T04:12:33;2.60;;;1.20;;
36355;SDS011;22384;54.302;18.596;2023-10-08T04:15:03;3.33;;;0.93;;
36355;SDS011;22384;54.302;18.596;2023-10-08T04:17:35;3.25;;;0.70;;
36355;SDS011;22384;54.302;18.596;2023-10-08T04:20:12;1.92;;;0.57;;
36355;SDS011;22384;54.302;18.596;2023-10-08T04:22:57;1.17;;;0.90;;
36355;SDS011;22384;54.302;18.596;2023-10-08T04:25:27;4.10;;;0.70;;
36355;SDS011;22384;54.302;18.596;2023-10-08T04:27:56;4.60;;;0.82;;
36355;SDS011;22384;54.302;18.596;2023-10-08T04:30:26;2.00;;;0.47;;
36355;SDS011;22384;54.302;18.596;2023-10-08T04:33:01;1.60;;;0.80;;
36355;SDS011;22384;54.302;18.596;2023-10-08T04:35:36;0.75;;;0.43;;
36355;SDS011;22384;54.302;18.596;2023-10-08T04:38:03;1.27;;;0.70;;
36355;SDS011;22384;54.302;18.596;2023-10-08T04:40:33;1.85;;;0.70;;
36355;SDS011;22384;54.302;18.596;2023-10-08T04:43:06;0.75;;;0.50;;
36355;SDS011;22384;54.302;18.596;2023-10-08T04:45:35;1.25;;;0.38;;
36355;SDS011;22384;54.302;18.596;2023-10-08T04:48:03;2.88;;;0.50;;
36355;SDS011;22384;54.302;18.596;2023-10-08T04:50:34;1.50;;;0.70;;
36355;SDS011;22384;54.302;18.596;2023-10-08T04:53:03;2.63;;;0.80;;
36355;SDS011;22384;54.302;18.596;2023-10-08T04:55:35;3.20;;;0.73;;
36355;SDS011;22384;54.302;18.596;2023-10-08T04:58:07;4.38;;;0.50;;
36355;SDS011;22384;54.302;18.596;2023-10-08T05:00:53;1.25;;;0.85;;
36355;SDS011;22384;54.302;18.596;2023-10-08T05:03:20;1.77;;;0.68;;
36355;SDS011;22384;54.302;18.596;2023-10-08T05:05:48;0.82;;;0.60;;
36355;SDS011;22384;54.302;18.596;2023-10-08T05:08:27;1.23;;;0.52;;
36355;SDS011;22384;54.302;18.596;2023-10-08T05:11:11;3.53;;;0.60;;
36355;SDS011;22384;54.302;18.596;2023-10-08T05:13:49;0.90;;;0.55;;
36355;SDS011;22384;54.302;18.596;2023-10-08T05:16:26;1.13;;;0.50;;
36355;SDS011;22384;54.302;18.596;2023-10-08T05:19:15;2.08;;;0.63;;
36355;SDS011;22384;54.302;18.596;2023-10-08T05:22:01;1.63;;;0.68;;
36355;SDS011;22384;54.302;18.596;2023-10-08T05:24:42;1.50;;;1.13;;
36355;SDS011;22384;54.302;18.596;2023-10-08T05:27:16;1.23;;;0.43;;
36355;SDS011;22384;54.302;18.596;2023-10-08T05:30:03;2.05;;;0.45;;
36355;SDS011;22384;54.302;18.596;2023-10-08T05:32:40;2.65;;;0.50;;
36355;SDS011;22384;54.302;18.596;2023-10-08T05:35:29;5.15;;;0.65;;
36355;SDS011;22384;54.302;18.596;2023-10-08T05:38:12;0.40;;;0.32;;
36355;SDS011;22384;54.302;18.596;2023-10-08T05:40:42;2.13;;;0.85;;
36355;SDS011;22384;54.302;18.596;2023-10-08T05:43:30;1.88;;;0.50;;
36355;SDS011;22384;54.302;18.596;2023-10-08T05:46:20;1.38;;;0.52;;
36355;SDS011;22384;54.302;18.596;2023-10-08T05:48:59;3.13;;;0.50;;
36355;SDS011;22384;54.302;18.596;2023-10-08T05:51:31;1.60;;;0.52;;
36355;SDS011;22384;54.302;18.596;2023-10-08T05:54:13;3.45;;;0.77;;
36355;SDS011;22384;54.302;18.596;2023-10-08T05:59:49;2.90;;;0.80;;
36355;SDS011;22384;54.302;18.596;2023-10-08T06:05:09;3.28;;;0.85;;
36355;SDS011;22384;54.302;18.596;2023-10-08T06:10:15;4.35;;;0.68;;
36355;SDS011;22384;54.302;18.596;2023-10-08T06:15:37;2.25;;;0.55;;
36355;SDS011;22384;54.302;18.596;2023-10-08T06:18:14;1.30;;;0.70;;
36355;SDS011;22384;54.302;18.596;2023-10-08T06:20:43;3.08;;;0.82;;
36355;SDS011;22384;54.302;18.596;2023-10-08T06:23:10;1.85;;;0.63;;
36355;SDS011;22384;54.302;18.596;2023-10-08T06:25:37;2.70;;;0.80;;
36355;SDS011;22384;54.302;18.596;2023-10-08T06:28:11;1.58;;;0.73;;
36355;SDS011;22384;54.302;18.596;2023-10-08T06:30:37;1.25;;;0.50;;
36355;SDS011;22384;54.302;18.596;2023-10-08T06:33:06;1.92;;;0.65;;
36355;SDS011;22384;54.302;18.596;2023-10-08T06:35:32;2.30;;;0.75;;
36355;SDS011;22384;54.302;18.596;2023-10-08T06:37:58;3.45;;;0.70;;
36355;SDS011;22384;54.302;18.596;2023-10-08T06:40:26;2.20;;;0.73;;
36355;SDS011;22384;54.302;18.596;2023-10-08T06:43:06;3.45;;;0.70;;
36355;SDS011;22384;54.302;18.596;2023-10-08T06:46:01;3.10;;;0.85;;
36355;SDS011;22384;54.302;18.596;2023-10-08T06:48:27;1.27;;;0.68;;
36355;SDS011;22384;54.302;18.596;2023-10-08T06:50:54;1.23;;;0.88;;
36355;SDS011;22384;54.302;18.596;2023-10-08T06:53:23;1.20;;;0.60;;
36355;SDS011;22384;54.302;18.596;2023-10-08T06:55:49;3.42;;;0.95;;
36355;SDS011;22384;54.302;18.596;2023-10-08T06:58:22;2.55;;;0.80;;
36355;SDS011;22384;54.302;18.596;2023-10-08T07:00:49;4.07;;;1.10;;
36355;SDS011;22384;54.302;18.596;2023-10-08T07:03:16;3.92;;;0.80;;
36355;SDS011;22384;54.302;18.596;2023-10-08T07:05:45;0.90;;;0.63;;
36355;SDS011;22384;54.302;18.596;2023-10-08T07:08:22;2.92;;;0.70;;
36355;SDS011;22384;54.302;18.596;2023-10-08T07:10:49;1.15;;;0.60;;
36355;SDS011;22384;54.302;18.596;2023-10-08T07:13:15;1.38;;;0.60;;
36355;SDS011;22384;54.302;18.596;2023-10-08T07:15:45;1.45;;;0.57;;
36355;SDS011;22384;54.302;18.596;2023-10-08T07:18:12;1.95;;;0.80;;
36355;SDS011;22384;54.302;18.596;2023-10-08T07:20:44;3.35;;;1.02;;
36355;SDS011;22384;54.302;18.596;2023-10-08T07:23:10;0.90;;;0.50;;
36355;SDS011;22384;54.302;18.596;2023-10-08T07:25:54;1.58;;;0.60;;
36355;SDS011;22384;54.302;18.596;2023-10-08T07:28:25;0.73;;;0.50;;
36355;SDS011;22384;54.302;18.596;2023-10-08T07:30:51;1.75;;;0.50;;
36355;SDS011;22384;54.302;18.596;2023-10-08T07:33:18;4.05;;;0.60;;
36355;SDS011;22384;54.302;18.596;2023-10-08T07:35:44;3.83;;;0.65;;
36355;SDS011;22384;54.302;18.596;2023-10-08T07:38:22;1.73;;;0.50;;
36355;SDS011;22384;54.302;18.596;2023-10-08T07:40:48;2.15;;;0.60;;
36355;SDS011;22384;54.302;18.596;2023-10-08T07:43:15;3.55;;;0.50;;
36355;SDS011;22384;54.302;18.596;2023-10-08T07:45:45;4.95;;;0.63;;
36355;SDS011;22384;54.302;18.596;2023-10-08T07:48:11;4.22;;;1.23;;
36355;SDS011;22384;54.302;18.596;2023-10-08T07:50:42;1.60;;;0.70;;
36355;SDS011;22384;54.302;18.596;2023-10-08T07:53:08;3.07;;;0.60;;
36355;SDS011;22384;54.302;18.596;2023-10-08T07:55:43;1.48;;;0.70;;
36355;SDS011;22384;54.302;18.596;2023-10-08T07:58:09;4.63;;;0.70;;
36355;SDS011;22384;54.302;18.596;2023-10-08T08:00:36;2.53;;;0.65;;
36355;SDS011;22384;54.302;18.596;2023-10-08T08:03:04;4.05;;;0.90;;
36355;SDS011;22384;54.302;18.596;2023-10-08T08:05:30;1.38;;;0.63;;
36355;SDS011;22384;54.302;18.596;2023-10-08T08:07:56;0.75;;;0.50;;
36355;SDS011;22384;54.302;18.596;2023-10-08T08:10:24;0.98;;;0.65;;
36355;SDS011;22384;54.302;18.596;2023-10-08T08:12:51;1.30;;;0.80;;
36355;SDS011;22384;54.302;18.596;2023-10-08T08:15:21;0.63;;;0.50;;
36355;SDS011;22384;54.302;18.596;2023-10-08T08:17:48;2.85;;;0.85;;
36355;SDS011;22384;54.302;18.596;2023-10-08T08:20:14;1.73;;;0.63;;
36355;SDS011;22384;54.302;18.596;2023-10-08T08:22:43;1.73;;;0.70;;
36355;SDS011;22384;54.302;18.596;2023-10-08T08:25:19;1.42;;;0.57;;
36355;SDS011;22384;54.302;18.596;2023-10-08T08:28:07;2.55;;;1.00;;
36355;SDS011;22384;54.302;18.596;2023-10-08T08:30:42;2.47;;;1.60;;
36355;SDS011;22384;54.302;18.596;2023-10-08T08:33:11;1.58;;;0.85;;
36355;SDS011;22384;54.302;18.596;2023-10-08T08:35:37;0.90;;;0.60;;
36355;SDS011;22384;54.302;18.596;2023-10-08T08:38:03;1.75;;;0.63;;
36355;SDS011;22384;54.302;18.596;2023-10-08T08:40:31;1.42;;;0.60;;
36355;SDS011;22384;54.302;18.596;2023-10-08T08:45:59;4.10;;;0.75;;
36355;SDS011;22384;54.302;18.596;2023-10-08T08:48:34;1.27;;;0.57;;
36355;SDS011;22384;54.302;18.596;2023-10-08T08:51:03;1.98;;;0.70;;
36355;SDS011;22384;54.302;18.596;2023-10-08T08:53:32;2.75;;;1.00;;
36355;SDS011;22384;54.302;18.596;2023-10-08T09:09:56;2.55;;;0.55;;
36355;SDS011;22384;54.302;18.596;2023-10-08T09:25:49;2.50;;;0.60;;
36355;SDS011;22384;54.302;18.596;2023-10-08T09:28:17;0.73;;;0.43;;
36355;SDS011;22384;54.302;18.596;2023-10-08T09:30:43;3.85;;;0.65;;
36355;SDS011;22384;54.302;18.596;2023-10-08T09:33:13;3.42;;;0.70;;
36355;SDS011;22384;54.302;18.596;2023-10-08T09:35:41;1.85;;;0.70;;
36355;SDS011;22384;54.302;18.596;2023-10-08T09:38:08;1.00;;;0.43;;
36355;SDS011;22384;54.302;18.596;2023-10-08T09:40:38;2.53;;;0.55;;
36355;SDS011;22384;54.302;18.596;2023-10-08T09:43:06;3.13;;;0.80;;
36355;SDS011;22384;54.302;18.596;2023-10-08T09:45:34;0.65;;;0.60;;
36355;SDS011;22384;54.302;18.596;2023-10-08T09:48:01;1.35;;;0.70;;
36355;SDS011;22384;54.302;18.596;2023-10-08T09:50:28;2.20;;;0.82;;
36355;SDS011;22384;54.302;18.596;2023-10-08T09:55:21;2.20;;;0.50;;
36355;SDS011;22384;54.302;18.596;2023-10-08T09:57:47;2.75;;;0.60;;
36355;SDS011;22384;54.302;18.596;2023-10-08T10:00:16;1.70;;;0.70;;
36355;SDS011;22384;54.302;18.596;2023-10-08T10:02:54;1.75;;;0.60;;
36355;SDS011;22384;54.302;18.596;2023-10-08T10:05:20;1.80;;;0.50;;
36355;SDS011;22384;54.302;18.596;2023-10-08T10:07:50;2.80;;;0.52;;
36355;SDS011;22384;54.302;18.596;2023-10-08T10:10:28;1.15;;;0.40;;
36355;SDS011;22384;54.302;18.596;2023-10-08T10:13:03;0.95;;;0.52;;
36355;SDS011;22384;54.302;18.596;2023-10-08T10:15:32;1.25;;;0.77;;
36355;SDS011;22384;54.302;18.596;2023-10-08T10:18:08;2.83;;;0.50;;
36355;SDS011;22384;54.302;18.596;2023-10-08T10:20:51;1.10;;;0.80;;
36355;SDS011;22384;54.302;18.596;2023-10-08T10:23:37;3.15;;;0.57;;
36355;SDS011;22384;54.302;18.596;2023-10-08T10:34:05;4.03;;;0.57;;
36355;SDS011;22384;54.302;18.596;2023-10-08T11:15:57;0.98;;;0.50;;
36355;SDS011;22384;54.302;18.596;2023-10-08T11:18:26;2.40;;;0.57;;
36355;SDS011;22384;54.302;18.596;2023-10-08T11:20:53;1.30;;;0.50;;
36355;SDS011;22384;54.302;18.596;2023-10-08T11:23:35;1.17;;;0.60;;
36355;SDS011;22384;54.302;18.596;2023-10-08T11:26:02;1.20;;;0.45;;
36355;SDS011;22384;54.302;18.596;2023-10-08T11:28:30;0.75;;;0.43;;
36355;SDS011;22384;54.302;18.596;2023-10-08T11:30:59;1.03;;;0.60;;
36355;SDS011;22384;54.302;18.596;2023-10-08T11:33:33;1.55;;;0.40;;
36355;SDS011;22384;54.302;18.596;2023-10-08T11:36:01;3.40;;;0.80;;
36355;SDS011;22384;54.302;18.596;2023-10-08T11:38:37;1.10;;;0.40;;
36355;SDS011;22384;54.302;18.596;2023-10-08T11:41:09;1.70;;;0.60;;
36355;SDS011;22384;54.302;18.596;2023-10-08T11:43:38;2.30;;;0.52;;
36355;SDS011;22384;54.302;18.596;2023-10-08T11:46:04;0.77;;;0.50;;
36355;SDS011;22384;54.302;18.596;2023-10-08T11:48:30;1.42;;;0.50;;
36355;SDS011;22384;54.302;18.596;2023-10-08T11:51:03;2.22;;;0.50;;
36355;SDS011;22384;54.302;18.596;2023-10-08T11:53:30;2.40;;;0.52;;
36355;SDS011;22384;54.302;18.596;2023-10-08T11:56:02;0.52;;;0.32;;
36355;SDS011;22384;54.302;18.596;2023-10-08T11:58:34;2.10;;;0.68;;
36355;SDS011;22384;54.302;18.596;2023-10-08T12:01:02;1.10;;;0.50;;
36355;SDS011;22384;54.302;18.596;2023-10-08T12:03:29;0.90;;;0.63;;
36355;SDS011;22384;54.302;18.596;2023-10-08T12:05:56;1.02;;;0.50;;
36355;SDS011;22384;54.302;18.596;2023-10-08T12:08:26;2.47;;;0.50;;
36355;SDS011;22384;54.302;18.596;2023-10-08T12:10:52;1.05;;;0.60;;
36355;SDS011;22384;54.302;18.596;2023-10-08T12:13:25;1.92;;;1.05;;
36355;SDS011;22384;54.302;18.596;2023-10-08T12:15:56;3.60;;;0.60;;
36355;SDS011;22384;54.302;18.596;2023-10-08T12:24:22;1.67;;;0.52;;
36355;SDS011;22384;54.302;18.596;2023-10-08T12:26:48;1.05;;;0.45;;
36355;SDS011;22384;54.302;18.596;2023-10-08T12:29:14;1.48;;;0.55;;
36355;SDS011;22384;54.302;18.596;2023-10-08T13:14:40;2.55;;;0.70;;
36355;SDS011;22384;54.302;18.596;2023-10-08T13:17:10;3.58;;;0.70;;
36355;SDS011;22384;54.302;18.596;2023-10-08T13:19:38;2.30;;;0.90;;
36355;SDS011;22384;54.302;18.596;2023-10-08T13:22:04;7.95;;;0.88;;
36355;SDS011;22384;54.302;18.596;2023-10-08T13:24:33;2.22;;;0.80;;
36355;SDS011;22384;54.302;18.596;2023-10-08T13:27:00;0.80;;;0.60;;
36355;SDS011;22384;54.302;18.596;2023-10-08T13:29:26;0.98;;;0.50;;
36355;SDS011;22384;54.302;18.596;2023-10-08T13:31:57;1.33;;;0.65;;
36355;SDS011;22384;54.302;18.596;2023-10-08T13:34:23;1.92;;;0.65;;
36355;SDS011;22384;54.302;18.596;2023-10-08T13:36:51;1.15;;;0.60;;
36355;SDS011;22384;54.302;18.596;2023-10-08T13:39:17;1.23;;;0.63;;
36355;SDS011;22384;54.302;18.596;2023-10-08T13:41:44;1.10;;;0.40;;
36355;SDS011;22384;54.302;18.596;2023-10-08T13:44:13;1.75;;;0.38;;
36355;SDS011;22384;54.302;18.596;2023-10-08T13:46:39;4.38;;;0.90;;
36355;SDS011;22384;54.302;18.596;2023-10-08T13:49:14;0.88;;;0.45;;
36355;SDS011;22384;54.302;18.596;2023-10-08T13:51:41;1.80;;;0.50;;
36355;SDS011;22384;54.302;18.596;2023-10-08T13:54:09;3.03;;;0.55;;
36355;SDS011;22384;54.302;18.596;2023-10-08T13:56:36;6.55;;;0.80;;
36355;SDS011;22384;54.302;18.596;2023-10-08T13:59:03;4.72;;;0.70;;
36355;SDS011;22384;54.302;18.596;2023-10-08T14:01:36;3.00;;;0.75;;
36355;SDS011;22384;54.302;18.596;2023-10-08T14:04:04;4.15;;;0.98;;
36355;SDS011;22384;54.302;18.596;2023-10-08T14:06:34;2.78;;;0.85;;
36355;SDS011;22384;54.302;18.596;2023-10-08T14:09:01;3.80;;;0.80;;
36355;SDS011;22384;54.302;18.596;2023-10-08T14:11:32;3.78;;;0.80;;
36355;SDS011;22384;54.302;18.596;2023-10-08T14:13:58;2.47;;;0.88;;
36355;SDS011;22384;54.302;18.596;2023-10-08T14:16:35;2.45;;;0.60;;
36355;SDS011;22384;54.302;18.596;2023-10-08T14:19:02;3.72;;;0.90;;
36355;SDS011;22384;54.302;18.596;2023-10-08T14:21:30;1.45;;;0.77;;
36355;SDS011;22384;54.302;18.596;2023-10-08T14:24:01;1.15;;;0.65;;
36355;SDS011;22384;54.302;18.596;2023-10-08T14:26:28;1.17;;;0.70;;
36355;SDS011;22384;54.302;18.596;2023-10-08T14:34:36;1.15;;;0.60;;
36355;SDS011;22384;54.302;18.596;2023-10-08T14:53:41;2.40;;;0.70;;
36355;SDS011;22384;54.302;18.596;2023-10-08T14:56:07;2.55;;;1.05;;
36355;SDS011;22384;54.302;18.596;2023-10-08T14:58:34;3.22;;;1.08;;
36355;SDS011;22384;54.302;18.596;2023-10-08T15:01:00;2.95;;;0.90;;
36355;SDS011;22384;54.302;18.596;2023-10-08T15:03:26;1.58;;;0.70;;
36355;SDS011;22384;54.302;18.596;2023-10-08T15:05:52;4.88;;;0.93;;
36355;SDS011;22384;54.302;18.596;2023-10-08T15:08:19;2.10;;;1.00;;
36355;SDS011;22384;54.302;18.596;2023-10-08T15:10:47;3.05;;;0.80;;
36355;SDS011;22384;54.302;18.596;2023-10-08T15:13:14;1.40;;;0.73;;
36355;SDS011;22384;54.302;18.596;2023-10-08T15:15:41;1.88;;;0.95;;
36355;SDS011;22384;54.302;18.596;2023-10-08T15:18:08;4.22;;;1.10;;
36355;SDS011;22384;54.302;18.596;2023-10-08T15:20:36;1.45;;;0.90;;
36355;SDS011;22384;54.302;18.596;2023-10-08T15:23:05;2.35;;;0.85;;
36355;SDS011;22384;54.302;18.596;2023-10-08T15:25:32;3.03;;;0.70;;
36355;SDS011;22384;54.302;18.596;2023-10-08T15:27:58;1.27;;;0.77;;
36355;SDS011;22384;54.302;18.596;2023-10-08T15:30:26;2.83;;;1.30;;
36355;SDS011;22384;54.302;18.596;2023-10-08T15:32:54;1.27;;;0.77;;
36355;SDS011;22384;54.302;18.596;2023-10-08T15:35:20;0.77;;;0.77;;
36355;SDS011;22384;54.302;18.596;2023-10-08T15:37:49;1.27;;;0.80;;
36355;SDS011;22384;54.302;18.596;2023-10-08T15:40:15;3.28;;;1.17;;
36355;SDS011;22384;54.302;18.596;2023-10-08T15:42:48;2.72;;;0.82;;
36355;SDS011;22384;54.302;18.596;2023-10-08T15:45:16;4.28;;;1.10;;
36355;SDS011;22384;54.302;18.596;2023-10-08T15:47:42;2.80;;;1.05;;
36355;SDS011;22384;54.302;18.596;2023-10-08T15:50:08;2.78;;;1.30;;
36355;SDS011;22384;54.302;18.596;2023-10-08T15:52:38;3.03;;;1.20;;
36355;SDS011;22384;54.302;18.596;2023-10-08T15:55:05;1.90;;;1.00;;
36355;SDS011;22384;54.302;18.596;2023-10-08T15:57:31;3.30;;;0.80;;
36355;SDS011;22384;54.302;18.596;2023-10-08T15:59:57;2.67;;;1.10;;
36355;SDS011;22384;54.302;18.596;2023-10-08T16:02:23;2.33;;;1.15;;
36355;SDS011;22384;54.302;18.596;2023-10-08T16:04:49;1.15;;;0.90;;
36355;SDS011;22384;54.302;18.596;2023-10-08T16:07:16;6.68;;;1.52;;
36355;SDS011;22384;54.302;18.596;2023-10-08T16:09:42;2.58;;;1.55;;
36355;SDS011;22384;54.302;18.596;2023-10-08T16:12:08;6.40;;;1.65;;
36355;SDS011;22384;54.302;18.596;2023-10-08T16:14:34;9.32;;;4.57;;
36355;SDS011;22384;54.302;18.596;2023-10-08T16:17:00;3.35;;;1.52;;
36355;SDS011;22384;54.302;18.596;2023-10-08T16:19:29;3.03;;;1.50;;
36355;SDS011;22384;54.302;18.596;2023-10-08T16:21:57;3.83;;;2.00;;
36355;SDS011;22384;54.302;18.596;2023-10-08T16:24:23;2.90;;;1.27;;
36355;SDS011;22384;54.302;18.596;2023-10-08T16:26:50;1.73;;;1.02;;
36355;SDS011;22384;54.302;18.596;2023-10-08T16:29:18;3.42;;;1.42;;
36355;SDS011;22384;54.302;18.596;2023-10-08T16:31:45;5.53;;;1.77;;
36355;SDS011;22384;54.302;18.596;2023-10-08T16:34:13;5.53;;;1.30;;
36355;SDS011;22384;54.302;18.596;2023-10-08T16:36:41;4.88;;;1.60;;
36355;SDS011;22384;54.302;18.596;2023-10-08T16:39:07;4.03;;;1.80;;
36355;SDS011;22384;54.302;18.596;2023-10-08T16:41:36;4.57;;;2.42;;
36355;SDS011;22384;54.302;18.596;2023-10-08T17:08:46;5.80;;;1.83;;
36355;SDS011;22384;54.302;18.596;2023-10-08T17:11:12;4.75;;;1.77;;
36355;SDS011;22384;54.302;18.596;2023-10-08T17:13:38;5.10;;;1.55;;
36355;SDS011;22384;54.302;18.596;2023-10-08T17:16:06;3.95;;;1.83;;
36355;SDS011;22384;54.302;18.596;2023-10-08T17:18:33;3.92;;;1.58;;
36355;SDS011;22384;54.302;18.596;2023-10-08T17:21:00;3.90;;;1.60;;
36355;SDS011;22384;54.302;18.596;2023-10-08T17:23:26;2.70;;;1.50;;
36355;SDS011;22384;54.302;18.596;2023-10-08T17:25:53;4.82;;;2.28;;
36355;SDS011;22384;54.302;18.596;2023-10-08T17:28:19;14.80;;;4.75;;
36355;SDS011;22384;54.302;18.596;2023-10-08T17:30:45;11.45;;;4.95;;
36355;SDS011;22384;54.302;18.596;2023-10-08T17:33:11;12.00;;;5.10;;
36355;SDS011;22384;54.302;18.596;2023-10-08T17:35:37;9.27;;;4.22;;
36355;SDS011;22384;54.302;18.596;2023-10-08T17:38:04;33.35;;;10.93;;
36355;SDS011;22384;54.302;18.596;2023-10-08T17:40:30;26.50;;;10.48;;
36355;SDS011;22384;54.302;18.596;2023-10-08T17:42:56;33.85;;;15.32;;
36355;SDS011;22384;54.302;18.596;2023-10-08T17:45:23;27.50;;;16.10;;
36355;SDS011;22384;54.302;18.596;2023-10-08T17:47:50;14.60;;;8.00;;
36355;SDS011;22384;54.302;18.596;2023-10-08T17:50:20;12.07;;;5.70;;
36355;SDS011;22384;54.302;18.596;2023-10-08T17:52:46;18.45;;;7.10;;
36355;SDS011;22384;54.302;18.596;2023-10-08T17:55:17;62.20;;;22.90;;
36355;SDS011;22384;54.302;18.596;2023-10-08T17:57:45;29.38;;;12.20;;
36355;SDS011;22384;54.302;18.596;2023-10-08T18:00:11;22.63;;;9.85;;